aviador You're here:

KSMX Decoded Metar

SANTA MARIA in CA, USA
Report Time2017-03-23 03:51:00
UTC Time2017-03-23 04:13:57
Flight Rules vfr VFR
Wind310° at 10 kt
W.Decomp.*RWY 30: 10.0 kt HW 0.7 kt LCW
RWY 02: 1.0 kt HW 9.9 kt LCW
W.Rank310° ranks 2
Current wind is above 310° avg. (9.1)
Visibility9999 m
Phenomena:N/A
Clouds:N/A
Expected CloudBase > 1,200 ft AGL from Temp-Dew spread
CeilingNone
Temp11°C (ISA -4)
Dew Point08°C (82% RH)
AAT6.9°C
QNH1018 hPa
Density Alt-200 ft
Elevation243 ft
Report Wrong Elevation
Raw Report
KSMX 230351Z AUTO 31010KT 10SM CLR 11/08 A3007=

Extra information for KSMX:More info

Metar Taf Metar & Taf Last 4 Metars F.Rules Stats Wind Profile Meteogram Temp Stats Airport Information Weather charts Add Link Nearby VenuesMetar ALERT Operation Metar Decoded Social comments

AIRNAV info for KSMX